EDXW Airport Information

Runway Information
Runway 06 Length 5564 ft width 148 ft
Elevation 27 ft Threshold 0 ft Heading 60
Runway 24 Length 5564 ft Width 148 ft
Elevation 51 ft Threshold 0 ft Heading 240
Runway 14 Length 6955 ft width 148 ft
Elevation 32 ft Threshold 0 ft Heading 144
Runway 32 Length 6955 ft Width 148 ft
Elevation 31 ft Threshold 0 ft Heading 324
Airport Frequencies
Type INFO Name BREMEN INF Frequency 125.1 MHZ
Type RDR Name BREMEN RAD Frequency 136.225 MHZ
Type TWR Name SYLT TWR Frequency 119.75 MHZ
Airport Navaids
Type NDB Name Sylt Frequency 387 KHZ
Type DME Name Westerland Frequency 111500 KHZ
Airport Weather Information & NOTAM
ADDS - METARS form results

(2103 UTC 17 November 2018)
Data provider http://aviationweather.gov/metar/data/
 
Forecast for: EDXW (WESTERLAND/SYLT , DE)
Text: TAF EDXW 171400Z 1715/1718 10009KT CAVOK
Forecast period: 1500 to 1800 UTC 17 November 2018
Forecast type: FROM: standard forecast or significant change
Winds: from the E (100 degrees) at 10 MPH (9 knots; 4.6 m/s)
Visibility: 6 or more miles 10+ km)
Ceiling: unknown
Clouds: missing
Weather: NSW  (no significant weather)